EWG1A EDDL-EGLL
Flight info
| Callsign | EWG1A |
|---|---|
| Flight time | 0h 50m |
| Altitude | 32000 |
| Route | NETEX6T NETEX Z282 DIBIR L179 SASKI L608 LOGAN |
| Aircraft | A320/M-SDE3FGHIRWY/LB1 |
Departure
| Time | 2026-05-04 07:34 |
|---|---|
| Airport | Düsseldorf Airport (EDDL) |
Arrival
| Time | 2026-05-04 08:25 |
|---|---|
| Airport | London Heathrow Airport (EGLL) |
| Time | Latitude | Longitude | Altitude | Speed | Heading |
|---|---|---|---|---|---|
| 2026-05-04 07:04 | 51.28108 | 6.76546 | 129 ft | 0 kts | 96° |
| 2026-05-04 07:23 | 51.28110 | 6.76515 | 127 ft | 4 kts | 98° |
| 2026-05-04 07:23 | 51.28115 | 6.76473 | 124 ft | 4 kts | 104° |
| 2026-05-04 07:24 | 51.28123 | 6.76433 | 125 ft | 2 kts | 117° |
| 2026-05-04 07:24 | 51.28135 | 6.76403 | 126 ft | 4 kts | 135° |
| 2026-05-04 07:24 | 51.28156 | 6.76378 | 126 ft | 4 kts | 154° |
| 2026-05-04 07:24 | 51.28179 | 6.76360 | 122 ft | 4 kts | 173° |
| 2026-05-04 07:25 | 51.28203 | 6.76369 | 122 ft | 4 kts | 224° |
| 2026-05-04 07:26 | 51.28217 | 6.76395 | 122 ft | 0 kts | 232° |
| 2026-05-04 07:27 | 51.28217 | 6.76394 | 122 ft | 0 kts | 232° |
| 2026-05-04 07:27 | 51.28198 | 6.76355 | 122 ft | 5 kts | 233° |
| 2026-05-04 07:27 | 51.28180 | 6.76270 | 126 ft | 10 kts | 289° |
| 2026-05-04 07:27 | 51.28251 | 6.76276 | 126 ft | 20 kts | 51° |
| 2026-05-04 07:28 | 51.28322 | 6.76427 | 123 ft | 15 kts | 53° |
| 2026-05-04 07:28 | 51.28380 | 6.76550 | 122 ft | 13 kts | 53° |
| 2026-05-04 07:28 | 51.28431 | 6.76657 | 124 ft | 11 kts | 53° |
| 2026-05-04 07:28 | 51.28487 | 6.76773 | 124 ft | 17 kts | 52° |
| 2026-05-04 07:29 | 51.28555 | 6.76918 | 126 ft | 15 kts | 53° |
| 2026-05-04 07:29 | 51.28614 | 6.77038 | 126 ft | 13 kts | 52° |
| 2026-05-04 07:29 | 51.28663 | 6.77140 | 126 ft | 11 kts | 53° |
| 2026-05-04 07:29 | 51.28714 | 6.77247 | 128 ft | 18 kts | 53° |
| 2026-05-04 07:30 | 51.28810 | 6.77449 | 127 ft | 25 kts | 52° |
| 2026-05-04 07:30 | 51.28916 | 6.77672 | 128 ft | 26 kts | 52° |
| 2026-05-04 07:30 | 51.29026 | 6.77903 | 128 ft | 26 kts | 52° |
| 2026-05-04 07:30 | 51.29137 | 6.78136 | 134 ft | 24 kts | 53° |
| 2026-05-04 07:31 | 51.29215 | 6.78216 | 137 ft | 11 kts | 359° |
| 2026-05-04 07:31 | 51.29256 | 6.78191 | 137 ft | 0 kts | 326° |
| 2026-05-04 07:33 | 51.29318 | 6.78048 | 139 ft | 0 kts | 232° |
| 2026-05-04 07:33 | 51.29309 | 6.78030 | 138 ft | 10 kts | 232° |
| 2026-05-04 07:33 | 51.29087 | 6.77564 | 127 ft | 92 kts | 233° |
| 2026-05-04 07:34 | 51.28563 | 6.76466 | 125 ft | 153 kts | 232° |
| 2026-05-04 07:34 | 51.27884 | 6.75022 | 682 ft | 162 kts | 232° |
| 2026-05-04 07:34 | 51.27208 | 6.73568 | 1525 ft | 162 kts | 233° |
| 2026-05-04 07:34 | 51.26761 | 6.71854 | 1934 ft | 181 kts | 266° |
| 2026-05-04 07:35 | 51.27075 | 6.69806 | 2269 ft | 205 kts | 296° |
| 2026-05-04 07:35 | 51.27531 | 6.68431 | 2481 ft | 219 kts | 297° |
| 2026-05-04 07:35 | 51.28293 | 6.66157 | 2865 ft | 244 kts | 297° |
| 2026-05-04 07:35 | 51.29122 | 6.63680 | 3453 ft | 258 kts | 297° |
| 2026-05-04 07:36 | 51.30255 | 6.60288 | 4617 ft | 263 kts | 297° |
| 2026-05-04 07:36 | 51.31119 | 6.57688 | 5518 ft | 265 kts | 297° |
| 2026-05-04 07:38 | 51.36243 | 6.39355 | 10789 ft | 288 kts | 267° |
| 2026-05-04 07:38 | 51.35865 | 6.36105 | 10986 ft | 310 kts | 249° |
| 2026-05-04 07:38 | 51.34847 | 6.32985 | 11383 ft | 323 kts | 240° |
| 2026-05-04 07:38 | 51.33725 | 6.29833 | 12068 ft | 327 kts | 240° |
| 2026-05-04 07:39 | 51.32608 | 6.26649 | 12809 ft | 329 kts | 240° |
| 2026-05-04 07:39 | 51.31494 | 6.23436 | 13553 ft | 331 kts | 240° |
| 2026-05-04 07:39 | 51.30377 | 6.20198 | 14212 ft | 334 kts | 240° |
| 2026-05-04 07:39 | 51.29244 | 6.16926 | 14823 ft | 338 kts | 240° |
| 2026-05-04 07:40 | 51.28100 | 6.13630 | 15421 ft | 341 kts | 240° |
| 2026-05-04 07:40 | 51.26955 | 6.10281 | 16006 ft | 345 kts | 242° |
| 2026-05-04 07:40 | 51.25841 | 6.06851 | 16580 ft | 349 kts | 242° |
| 2026-05-04 07:40 | 51.24739 | 6.03371 | 17155 ft | 353 kts | 243° |
| 2026-05-04 07:41 | 51.23634 | 5.99846 | 17729 ft | 357 kts | 244° |
| 2026-05-04 07:41 | 51.22762 | 5.96105 | 18266 ft | 362 kts | 255° |
| 2026-05-04 07:41 | 51.22367 | 5.92118 | 18766 ft | 367 kts | 265° |
| 2026-05-04 07:41 | 51.22281 | 5.88038 | 19284 ft | 369 kts | 266° |
| 2026-05-04 07:42 | 51.22193 | 5.83991 | 19804 ft | 371 kts | 265° |
| 2026-05-04 07:42 | 51.22095 | 5.79873 | 20334 ft | 372 kts | 265° |
| 2026-05-04 07:42 | 51.21992 | 5.75733 | 20848 ft | 374 kts | 265° |
| 2026-05-04 07:42 | 51.21887 | 5.71575 | 21362 ft | 376 kts | 264° |
| 2026-05-04 07:43 | 51.21779 | 5.67391 | 21863 ft | 378 kts | 264° |
| 2026-05-04 07:43 | 51.21669 | 5.63187 | 22351 ft | 380 kts | 264° |
| 2026-05-04 07:43 | 51.21559 | 5.58962 | 22830 ft | 382 kts | 264° |
| 2026-05-04 07:43 | 51.21438 | 5.54717 | 23305 ft | 384 kts | 263° |
| 2026-05-04 07:44 | 51.21304 | 5.50453 | 23735 ft | 386 kts | 263° |
| 2026-05-04 07:44 | 51.21157 | 5.46159 | 24136 ft | 388 kts | 263° |
| 2026-05-04 07:44 | 51.21008 | 5.41867 | 24534 ft | 389 kts | 263° |
| 2026-05-04 07:44 | 51.20858 | 5.37549 | 24938 ft | 390 kts | 263° |
| 2026-05-04 07:45 | 51.20708 | 5.33216 | 25326 ft | 392 kts | 263° |
| 2026-05-04 07:45 | 51.20555 | 5.28877 | 25717 ft | 393 kts | 263° |
| 2026-05-04 07:45 | 51.20400 | 5.24522 | 26104 ft | 394 kts | 263° |
| 2026-05-04 07:45 | 51.20244 | 5.20147 | 26474 ft | 396 kts | 263° |
| 2026-05-04 07:46 | 51.20088 | 5.15763 | 26847 ft | 397 kts | 263° |
| 2026-05-04 07:46 | 51.19931 | 5.11362 | 27218 ft | 398 kts | 263° |
| 2026-05-04 07:46 | 51.19770 | 5.06951 | 27587 ft | 400 kts | 263° |
| 2026-05-04 07:46 | 51.19604 | 5.02517 | 27956 ft | 401 kts | 262° |
| 2026-05-04 07:47 | 51.19437 | 4.98072 | 28308 ft | 402 kts | 263° |
| 2026-05-04 07:47 | 51.19300 | 4.93918 | 28628 ft | 404 kts | 263° |
| 2026-05-04 07:47 | 51.19172 | 4.89515 | 28954 ft | 405 kts | 263° |
| 2026-05-04 07:49 | 51.18080 | 4.57768 | 31031 ft | 412 kts | 262° |
| 2026-05-04 07:49 | 51.17902 | 4.53217 | 31376 ft | 411 kts | 262° |
| 2026-05-04 07:49 | 51.17724 | 4.48673 | 31696 ft | 410 kts | 262° |
| 2026-05-04 07:50 | 51.17547 | 4.44150 | 32036 ft | 409 kts | 262° |
| 2026-05-04 07:50 | 51.17366 | 4.39618 | 32356 ft | 409 kts | 262° |
| 2026-05-04 07:50 | 51.17186 | 4.35157 | 32676 ft | 408 kts | 262° |
| 2026-05-04 07:50 | 51.17003 | 4.30638 | 33003 ft | 407 kts | 262° |
| 2026-05-04 07:51 | 51.16821 | 4.26134 | 33334 ft | 407 kts | 262° |
| 2026-05-04 07:51 | 51.16706 | 4.21622 | 33658 ft | 409 kts | 267° |
| 2026-05-04 07:51 | 51.17005 | 4.17098 | 33935 ft | 414 kts | 276° |
| 2026-05-04 07:51 | 51.17783 | 4.12649 | 33995 ft | 417 kts | 284° |
| 2026-05-04 07:52 | 51.19752 | 4.03978 | 33996 ft | 415 kts | 284° |
| 2026-05-04 07:52 | 51.21679 | 3.95353 | 33990 ft | 415 kts | 283° |
| 2026-05-04 07:54 | 51.29346 | 3.60586 | 33996 ft | 415 kts | 283° |
| 2026-05-04 07:55 | 51.31259 | 3.51870 | 34001 ft | 416 kts | 283° |
| 2026-05-04 07:55 | 51.33163 | 3.43143 | 34005 ft | 416 kts | 283° |
| 2026-05-04 07:56 | 51.35047 | 3.34472 | 34004 ft | 416 kts | 284° |
| 2026-05-04 07:56 | 51.37058 | 3.25788 | 34004 ft | 417 kts | 285° |
| 2026-05-04 07:57 | 51.39150 | 3.17139 | 33998 ft | 417 kts | 285° |
| 2026-05-04 07:57 | 51.41225 | 3.08470 | 34001 ft | 416 kts | 285° |
| 2026-05-04 07:58 | 51.43266 | 2.99787 | 34007 ft | 416 kts | 285° |
| 2026-05-04 07:58 | 51.45302 | 2.91094 | 34002 ft | 416 kts | 285° |
| 2026-05-04 07:59 | 51.47333 | 2.82396 | 33997 ft | 417 kts | 285° |
| 2026-05-04 07:59 | 51.49356 | 2.73673 | 34004 ft | 417 kts | 285° |
| 2026-05-04 08:00 | 51.51372 | 2.64953 | 34009 ft | 417 kts | 285° |
| 2026-05-04 08:02 | 51.59379 | 2.29974 | 33202 ft | 421 kts | 285° |
| 2026-05-04 08:02 | 51.60387 | 2.25551 | 32927 ft | 422 kts | 284° |
| 2026-05-04 08:02 | 51.61391 | 2.21138 | 32410 ft | 418 kts | 284° |
| 2026-05-04 08:03 | 51.62385 | 2.16766 | 31836 ft | 414 kts | 284° |
| 2026-05-04 08:03 | 51.63369 | 2.12421 | 31289 ft | 411 kts | 283° |
| 2026-05-04 08:03 | 51.64340 | 2.08116 | 30744 ft | 408 kts | 283° |
| 2026-05-04 08:03 | 51.65304 | 2.03832 | 30204 ft | 406 kts | 282° |
| 2026-05-04 08:04 | 51.66258 | 1.99567 | 29627 ft | 403 kts | 282° |
| 2026-05-04 08:04 | 51.67198 | 1.95348 | 29080 ft | 398 kts | 283° |
| 2026-05-04 08:04 | 51.68116 | 1.91233 | 28572 ft | 393 kts | 283° |
| 2026-05-04 08:04 | 51.69039 | 1.87094 | 28057 ft | 389 kts | 283° |
| 2026-05-04 08:05 | 51.69949 | 1.83010 | 27553 ft | 385 kts | 283° |
| 2026-05-04 08:05 | 51.70848 | 1.78968 | 27068 ft | 381 kts | 284° |
| 2026-05-04 08:05 | 51.71735 | 1.74970 | 26596 ft | 376 kts | 284° |
| 2026-05-04 08:05 | 51.72606 | 1.71017 | 26120 ft | 372 kts | 284° |
| 2026-05-04 08:06 | 51.73467 | 1.67102 | 25667 ft | 368 kts | 284° |
| 2026-05-04 08:06 | 51.74194 | 1.63188 | 25233 ft | 360 kts | 277° |
| 2026-05-04 08:06 | 51.74497 | 1.59224 | 24773 ft | 354 kts | 269° |
| 2026-05-04 08:06 | 51.74387 | 1.55246 | 24220 ft | 355 kts | 262° |
| 2026-05-04 08:08 | 51.72607 | 1.27811 | 20470 ft | 349 kts | 262° |
| 2026-05-04 08:08 | 51.72353 | 1.23925 | 19947 ft | 349 kts | 262° |
| 2026-05-04 08:10 | 51.70229 | 0.92737 | 15998 ft | 341 kts | 262° |
| 2026-05-04 08:11 | 51.69972 | 0.88979 | 16003 ft | 335 kts | 262° |
| 2026-05-04 08:11 | 51.69449 | 0.81455 | 14894 ft | 346 kts | 262° |
| 2026-05-04 08:11 | 51.69176 | 0.77597 | 14352 ft | 348 kts | 262° |
| 2026-05-04 08:12 | 51.68900 | 0.73734 | 13893 ft | 346 kts | 262° |
| 2026-05-04 08:12 | 51.68624 | 0.69892 | 13391 ft | 344 kts | 262° |
| 2026-05-04 08:12 | 51.68350 | 0.66070 | 12886 ft | 342 kts | 262° |
| 2026-05-04 08:12 | 51.68082 | 0.62280 | 12403 ft | 340 kts | 262° |
| 2026-05-04 08:13 | 51.67816 | 0.58510 | 11901 ft | 337 kts | 262° |
| 2026-05-04 08:13 | 51.67548 | 0.54797 | 11679 ft | 328 kts | 262° |
| 2026-05-04 08:13 | 51.67287 | 0.51215 | 11552 ft | 316 kts | 262° |
| 2026-05-04 08:13 | 51.67036 | 0.47764 | 11426 ft | 305 kts | 262° |
| 2026-05-04 08:14 | 51.66793 | 0.44421 | 11277 ft | 296 kts | 262° |
| 2026-05-04 08:14 | 51.66552 | 0.41154 | 10985 ft | 292 kts | 262° |
| 2026-05-04 08:14 | 51.66312 | 0.37911 | 10658 ft | 290 kts | 262° |
| 2026-05-04 08:16 | 51.63496 | 0.16608 | 8258 ft | 272 kts | 232° |
| 2026-05-04 08:16 | 51.62312 | 0.14184 | 7938 ft | 269 kts | 231° |
| 2026-05-04 08:16 | 51.61185 | 0.11901 | 7806 ft | 251 kts | 231° |
| 2026-05-04 08:17 | 51.60141 | 0.09793 | 7515 ft | 239 kts | 231° |
| 2026-05-04 08:17 | 51.59080 | 0.07771 | 7042 ft | 235 kts | 221° |
| 2026-05-04 08:17 | 51.57630 | 0.06639 | 6648 ft | 235 kts | 189° |
| 2026-05-04 08:17 | 51.56019 | 0.06452 | 6488 ft | 228 kts | 182° |
| 2026-05-04 08:19 | 51.48131 | -0.02149 | 5156 ft | 192 kts | 246° |
| 2026-05-04 08:19 | 51.47807 | -0.04215 | 4923 ft | 193 kts | 269° |
| 2026-05-04 08:20 | 51.47803 | -0.06369 | 4673 ft | 194 kts | 270° |
| 2026-05-04 08:20 | 51.47806 | -0.08545 | 4403 ft | 196 kts | 270° |
| 2026-05-04 08:20 | 51.47808 | -0.10747 | 4133 ft | 198 kts | 270° |
| 2026-05-04 08:20 | 51.47808 | -0.12975 | 3863 ft | 201 kts | 270° |
| 2026-05-04 08:21 | 51.47807 | -0.15230 | 3585 ft | 204 kts | 270° |
| 2026-05-04 08:21 | 51.47807 | -0.17518 | 3311 ft | 206 kts | 270° |
| 2026-05-04 08:21 | 51.47805 | -0.19828 | 3032 ft | 208 kts | 270° |
| 2026-05-04 08:21 | 51.47803 | -0.22119 | 2767 ft | 201 kts | 271° |
| 2026-05-04 08:22 | 51.47801 | -0.24307 | 2487 ft | 192 kts | 270° |
| 2026-05-04 08:22 | 51.47799 | -0.26430 | 2222 ft | 189 kts | 270° |
| 2026-05-04 08:24 | 51.47771 | -0.39403 | 634 ft | 146 kts | 272° |
| 2026-05-04 08:24 | 51.47774 | -0.41027 | 411 ft | 145 kts | 274° |
| 2026-05-04 08:24 | 51.47771 | -0.42124 | 293 ft | 146 kts | 271° |
| 2026-05-04 08:24 | 51.47763 | -0.43743 | 114 ft | 145 kts | 273° |
| 2026-05-04 08:25 | 51.47763 | -0.45108 | 89 ft | 87 kts | 269° |
| 2026-05-04 08:25 | 51.47760 | -0.45664 | 85 ft | 33 kts | 269° |
| 2026-05-04 08:25 | 51.47643 | -0.45981 | 91 ft | 17 kts | 221° |
| 2026-05-04 08:25 | 51.47585 | -0.46061 | 91 ft | 16 kts | 219° |
| 2026-05-04 08:26 | 51.47517 | -0.46015 | 88 ft | 13 kts | 97° |
| 2026-05-04 08:27 | 51.47382 | -0.44560 | 87 ft | 19 kts | 180° |
| 2026-05-04 08:28 | 51.47258 | -0.44561 | 87 ft | 17 kts | 180° |
| 2026-05-04 08:28 | 51.47147 | -0.44559 | 87 ft | 15 kts | 179° |
| 2026-05-04 08:28 | 51.47045 | -0.44558 | 87 ft | 14 kts | 180° |
| 2026-05-04 08:28 | 51.46951 | -0.44558 | 87 ft | 13 kts | 180° |
| 2026-05-04 08:29 | 51.46864 | -0.44558 | 87 ft | 12 kts | 179° |
| 2026-05-04 08:29 | 51.46823 | -0.44596 | 90 ft | 6 kts | 258° |
| 2026-05-04 08:29 | 51.46820 | -0.44656 | 88 ft | 4 kts | 268° |
| 2026-05-04 08:31 | 51.46819 | -0.44685 | 87 ft | 0 kts | 266° |